createdAt,value
2018-10-02T00:03:08.747Z,101240.53
2018-10-02T00:08:10.881Z,101237.30
2018-10-02T00:13:18.645Z,101240.21
2018-10-02T00:18:20.771Z,101233.52
2018-10-02T00:23:22.894Z,101233.08
2018-10-02T00:28:24.991Z,101223.25
2018-10-02T00:33:27.162Z,101222.87
2018-10-02T00:38:29.260Z,101211.23
2018-10-02T00:43:31.417Z,101218.97
2018-10-02T00:48:33.525Z,101214.30
2018-10-02T00:53:35.651Z,101202.28
2018-10-02T00:58:37.774Z,101188.01
2018-10-02T01:03:39.887Z,101202.67
2018-10-02T01:08:42.030Z,101187.38
2018-10-02T01:13:44.129Z,101171.95
2018-10-02T01:18:46.258Z,101173.59
2018-10-02T01:23:48.367Z,101159.62
2018-10-02T01:28:50.485Z,101148.42
2018-10-02T01:33:52.631Z,101125.94
2018-10-02T01:38:54.803Z,101139.59
2018-10-02T01:43:56.922Z,101141.94
2018-10-02T01:48:59.072Z,101149.73
2018-10-02T01:54:01.181Z,101143.95
2018-10-02T01:59:03.374Z,101134.20
2018-10-02T02:04:05.479Z,101116.88
2018-10-02T02:09:07.857Z,101111.30
2018-10-02T02:14:09.970Z,101110.86
2018-10-02T02:19:12.074Z,101106.02
2018-10-02T02:24:14.260Z,101090.89
2018-10-02T02:29:16.478Z,101094.19
2018-10-02T02:34:18.608Z,101082.23
2018-10-02T02:39:20.733Z,101079.98
2018-10-02T02:44:22.859Z,101076.92
2018-10-02T02:49:30.587Z,101073.55
2018-10-02T02:54:32.730Z,101071.22
2018-10-02T02:59:34.871Z,101075.59
2018-10-02T03:04:36.983Z,101067.37
2018-10-02T03:09:39.078Z,101068.13
2018-10-02T03:14:41.199Z,101074.43
2018-10-02T03:19:43.292Z,101069.00
2018-10-02T03:24:45.377Z,101058.30
2018-10-02T03:29:47.559Z,101029.62
2018-10-02T03:34:49.663Z,101013.81
2018-10-02T03:39:51.857Z,101015.60
2018-10-02T03:44:53.992Z,101018.20
2018-10-02T03:49:59.124Z,101032.02
2018-10-02T03:55:01.257Z,101027.84
2018-10-02T04:00:03.904Z,101025.77
2018-10-02T04:05:06.047Z,101018.67
2018-10-02T04:10:08.163Z,101019.01
2018-10-02T04:15:10.300Z,101006.98
2018-10-02T04:20:12.459Z,101034.75
2018-10-02T04:25:14.569Z,101031.70
2018-10-02T04:30:17.137Z,101023.31
2018-10-02T04:35:19.267Z,101000.66
2018-10-02T04:40:21.407Z,100998.20
2018-10-02T04:45:23.521Z,101000.73
2018-10-02T04:50:25.765Z,100989.37
2018-10-02T04:55:27.860Z,100986.13
2018-10-02T05:00:30.007Z,100972.91
2018-10-02T05:05:32.093Z,100970.84
2018-10-02T05:10:34.212Z,100966.88
2018-10-02T05:15:36.321Z,100950.83
2018-10-02T05:20:38.480Z,100941.78
2018-10-02T05:25:40.601Z,100932.46
2018-10-02T05:30:42.738Z,100921.58
2018-10-02T05:35:44.901Z,100922.98
2018-10-02T05:40:47.007Z,100920.32
2018-10-02T05:45:49.195Z,100903.24
2018-10-02T05:50:51.337Z,100907.22
2018-10-02T05:55:53.671Z,100903.05
2018-10-02T06:00:56.172Z,100896.88
2018-10-02T06:05:58.285Z,100890.47
2018-10-02T06:11:00.477Z,100883.91
2018-10-02T06:16:02.590Z,100877.37
2018-10-02T06:21:04.905Z,100876.88
2018-10-02T06:26:07.046Z,100862.12
2018-10-02T06:31:09.187Z,100869.83
2018-10-02T06:36:11.479Z,100852.45
2018-10-02T06:41:13.606Z,100829.17
2018-10-02T06:46:15.739Z,100823.20
2018-10-02T06:51:17.984Z,100828.58
2018-10-02T06:56:20.087Z,100822.08
2018-10-02T07:01:22.254Z,100819.08
2018-10-02T07:06:24.418Z,100815.41
2018-10-02T07:11:26.601Z,100820.11
2018-10-02T07:16:28.780Z,100806.28
2018-10-02T07:21:30.975Z,100798.67
2018-10-02T07:26:33.197Z,100792.37
2018-10-02T07:31:35.328Z,100774.47
2018-10-02T07:36:37.591Z,100770.20
2018-10-02T07:41:39.767Z,100745.61
2018-10-02T07:46:41.876Z,100752.63
2018-10-02T07:51:43.978Z,100740.89
2018-10-02T07:56:46.176Z,100734.02
2018-10-02T08:01:48.395Z,100722.05
2018-10-02T08:06:50.589Z,100723.05
2018-10-02T08:11:52.737Z,100693.16
2018-10-02T08:16:54.872Z,100690.09
2018-10-02T08:21:57.058Z,100684.33
2018-10-02T08:26:59.223Z,100668.30
2018-10-02T08:32:01.323Z,100666.05
2018-10-02T08:37:03.489Z,100648.68
2018-10-02T08:42:05.700Z,100639.31
2018-10-02T08:47:07.900Z,100619.98
2018-10-02T08:52:10.151Z,100609.11
2018-10-02T08:57:13.076Z,100589.54
2018-10-02T09:02:15.260Z,100582.47
2018-10-02T09:07:17.439Z,100564.58
2018-10-02T09:12:19.603Z,100544.69
2018-10-02T09:17:21.759Z,100541.97
2018-10-02T09:22:23.902Z,100525.99
2018-10-02T09:27:26.062Z,100524.59
2018-10-02T09:32:34.011Z,100517.12
2018-10-02T09:37:41.955Z,100505.09
2018-10-02T09:42:49.989Z,100493.53
2018-10-02T09:47:52.156Z,100489.75
2018-10-02T09:52:54.353Z,100475.69
2018-10-02T09:57:56.584Z,100464.53
2018-10-02T10:02:58.824Z,100457.53
2018-10-02T10:08:00.988Z,100431.71
2018-10-02T10:13:03.123Z,100436.05
2018-10-02T10:18:05.303Z,100421.72
2018-10-02T10:23:07.480Z,100425.85
2018-10-02T10:28:09.654Z,100420.42
2018-10-02T10:33:12.042Z,100417.72
2018-10-02T10:38:14.197Z,100401.12
2018-10-02T10:43:16.333Z,100398.67
2018-10-02T10:48:18.535Z,100399.75
2018-10-02T10:53:20.843Z,100386.56
2018-10-02T10:58:23.039Z,100372.81
2018-10-02T11:03:25.147Z,100381.20
2018-10-02T11:08:27.287Z,100372.81
2018-10-02T11:13:29.421Z,100362.16
2018-10-02T11:18:31.570Z,100356.00
2018-10-02T11:23:33.787Z,100346.13
2018-10-02T11:28:35.954Z,100342.30
2018-10-02T11:33:38.106Z,100347.87
2018-10-02T11:38:40.255Z,100328.59
2018-10-02T11:43:42.479Z,100343.13
2018-10-02T11:48:44.647Z,100329.34
2018-10-02T11:53:46.876Z,100321.38
2018-10-02T11:58:49.027Z,100319.96
2018-10-02T12:03:51.289Z,100301.63
2018-10-02T12:08:53.505Z,100316.33
2018-10-02T12:13:55.675Z,100328.31
2018-10-02T12:18:57.932Z,100308.91
2018-10-02T12:24:00.190Z,100315.41
2018-10-02T12:29:02.499Z,100315.35
2018-10-02T12:34:04.747Z,100322.58
2018-10-02T12:39:07.636Z,100308.98
2018-10-02T12:44:09.773Z,100306.75
2018-10-02T12:49:12.149Z,100284.66
2018-10-02T12:54:14.370Z,100276.72
2018-10-02T12:59:16.528Z,100277.80
2018-10-02T13:04:18.689Z,100275.22
2018-10-02T13:09:20.840Z,100275.38
2018-10-02T13:14:23.042Z,100273.52
2018-10-02T13:19:25.161Z,100292.34
2018-10-02T13:24:27.362Z,100299.47
2018-10-02T13:29:29.508Z,100301.27
2018-10-02T13:34:31.748Z,100290.03
2018-10-02T13:39:33.820Z,100295.91
2018-10-02T13:44:36.029Z,100309.28
2018-10-02T13:49:38.145Z,100328.81
2018-10-02T13:54:40.299Z,100325.08
2018-10-02T13:59:42.450Z,100322.95
2018-10-02T14:04:44.623Z,100327.12
2018-10-02T14:09:46.743Z,100334.05
2018-10-02T14:14:48.892Z,100328.89
2018-10-02T14:19:51.080Z,100325.74
2018-10-02T14:24:53.296Z,100329.46
2018-10-02T14:29:55.442Z,100327.48
2018-10-02T14:34:57.577Z,100326.80
2018-10-02T14:39:59.760Z,100343.63
2018-10-02T14:45:01.965Z,100348.89
2018-10-02T14:50:04.204Z,100352.23
2018-10-02T14:55:06.431Z,100360.88
2018-10-02T15:00:08.652Z,100359.94
2018-10-02T15:05:10.877Z,100364.00
2018-10-02T15:10:13.018Z,100362.05
2018-10-02T15:15:15.203Z,100344.81
2018-10-02T15:20:17.420Z,100364.20
2018-10-02T15:25:19.630Z,100362.05
2018-10-02T15:30:21.803Z,100363.64
2018-10-02T15:35:23.957Z,100366.87
2018-10-02T15:40:26.168Z,100365.07
2018-10-02T15:45:28.339Z,100366.50
2018-10-02T15:50:30.531Z,100381.44
2018-10-02T15:55:32.721Z,100386.16
2018-10-02T16:00:34.872Z,100385.17
2018-10-02T16:05:37.067Z,100400.81
2018-10-02T16:10:39.910Z,100400.70
2018-10-02T16:15:42.058Z,100400.33
2018-10-02T16:20:44.244Z,100403.99
2018-10-02T16:25:46.416Z,100394.70
2018-10-02T16:30:48.617Z,100396.44
2018-10-02T16:35:50.782Z,100395.30
2018-10-02T16:40:55.555Z,100403.33
2018-10-02T16:45:57.771Z,100414.77
2018-10-02T16:50:59.985Z,100427.94
2018-10-02T16:56:02.236Z,100451.61
2018-10-02T17:01:04.461Z,100437.06
2018-10-02T17:06:06.669Z,100437.64
2018-10-02T17:11:08.865Z,100451.58
2018-10-02T17:16:11.017Z,100460.21
2018-10-02T17:21:13.188Z,100464.83
2018-10-02T17:26:15.410Z,100455.62
2018-10-02T17:31:17.589Z,100448.41
2018-10-02T17:36:19.788Z,100454.72
2018-10-02T17:41:21.962Z,100446.78
2018-10-02T17:46:24.171Z,100453.39
2018-10-02T17:51:26.337Z,100445.12
2018-10-02T17:56:28.548Z,100439.84
2018-10-02T18:01:30.857Z,100425.52
2018-10-02T18:06:33.062Z,100437.03
2018-10-02T18:11:35.472Z,100442.48
2018-10-02T18:16:37.675Z,100443.86
2018-10-02T18:21:39.937Z,100470.09
2018-10-02T18:26:42.124Z,100463.53
2018-10-02T18:31:44.370Z,100465.66
2018-10-02T18:36:46.637Z,100466.56
2018-10-02T18:41:49.021Z,100459.50
2018-10-02T18:46:51.364Z,100450.14
2018-10-02T18:51:53.677Z,100468.45
2018-10-02T18:56:55.967Z,100476.27
2018-10-02T19:01:58.326Z,100475.20
2018-10-02T19:07:00.831Z,100477.92
2018-10-02T19:12:09.256Z,100478.59
2018-10-02T19:17:12.220Z,100465.98
2018-10-02T19:22:14.822Z,100476.31
2018-10-02T19:27:17.279Z,100467.55
2018-10-02T19:32:20.105Z,100476.23
2018-10-02T19:37:28.499Z,100471.81
2018-10-02T19:42:31.115Z,100474.10
2018-10-02T19:47:33.897Z,100480.61
2018-10-02T19:52:37.159Z,100486.61
2018-10-02T19:57:39.741Z,100513.67
2018-10-02T20:02:42.294Z,100493.98
2018-10-02T20:07:45.265Z,100489.95
2018-10-02T20:12:47.900Z,100476.63
2018-10-02T20:17:50.269Z,100536.09
2018-10-02T20:22:52.664Z,100505.25
2018-10-02T20:27:55.054Z,100507.30
2018-10-02T20:32:57.477Z,100497.57
2018-10-02T20:37:59.883Z,100519.41
2018-10-02T20:43:02.331Z,100501.61
2018-10-02T20:48:04.703Z,100482.14
2018-10-02T20:53:07.123Z,100479.19
2018-10-02T20:58:09.522Z,100493.50
2018-10-02T21:03:11.787Z,100504.79
2018-10-02T21:08:14.037Z,100507.06
2018-10-02T21:13:16.216Z,100494.53
2018-10-02T21:18:18.559Z,100478.28
2018-10-02T21:23:20.717Z,100481.27
2018-10-02T21:28:23.050Z,100483.95
2018-10-02T21:33:25.238Z,100481.20
2018-10-02T21:38:27.388Z,100479.94
2018-10-02T21:43:29.525Z,100484.52
2018-10-02T21:48:31.700Z,100492.33
2018-10-02T21:53:33.942Z,100491.78
2018-10-02T21:58:36.136Z,100495.56
2018-10-02T22:03:39.491Z,100492.64
2018-10-02T22:08:41.727Z,100493.95
2018-10-02T22:13:43.882Z,100480.57
2018-10-02T22:18:46.181Z,100485.98
2018-10-02T22:23:48.422Z,100462.70
2018-10-02T22:28:50.603Z,100481.13
2018-10-02T22:33:52.719Z,100485.70
2018-10-02T22:38:54.913Z,100486.22
2018-10-02T22:43:57.046Z,100488.59
2018-10-02T22:48:59.269Z,100487.08
2018-10-02T22:54:01.419Z,100489.02
2018-10-02T22:59:03.602Z,100499.14
2018-10-02T23:04:06.248Z,100494.18
2018-10-02T23:09:09.977Z,100496.31
2018-10-02T23:14:12.045Z,100493.54
2018-10-02T23:19:14.170Z,100477.57
2018-10-02T23:24:16.344Z,100495.51
2018-10-02T23:29:18.474Z,100487.26
2018-10-02T23:34:20.599Z,100491.95
2018-10-02T23:39:22.722Z,100479.34
2018-10-02T23:44:24.871Z,100493.61
2018-10-02T23:49:26.985Z,100499.56
2018-10-02T23:54:29.088Z,100504.78
2018-10-02T23:59:31.221Z,100511.81
